createdAt,value
2023-04-17T00:00:01.861Z,64.10
2023-04-17T00:02:30.321Z,50.75
2023-04-17T00:04:59.576Z,48.53
2023-04-17T00:07:28.456Z,54.30
2023-04-17T00:09:56.895Z,45.95
2023-04-17T00:12:25.075Z,46.58
2023-04-17T00:14:53.435Z,48.28
2023-04-17T00:17:22.932Z,49.72
2023-04-17T00:19:51.433Z,46.50
2023-04-17T00:22:19.666Z,51.15
2023-04-17T00:24:48.055Z,47.75
2023-04-17T00:27:16.191Z,49.22
2023-04-17T00:29:44.562Z,47.38
2023-04-17T00:32:12.909Z,48.28
2023-04-17T00:34:42.783Z,52.22
2023-04-17T00:37:10.987Z,49.15
2023-04-17T00:39:39.429Z,49.38
2023-04-17T00:42:07.562Z,48.95
2023-04-17T00:44:35.968Z,45.60
2023-04-17T00:47:04.130Z,49.50
2023-04-17T00:49:32.835Z,49.22
2023-04-17T00:52:02.653Z,49.47
2023-04-17T00:54:31.688Z,54.25
2023-04-17T00:57:01.137Z,56.47
2023-04-17T00:59:29.879Z,46.17
2023-04-17T01:01:58.221Z,64.13
2023-04-17T01:04:27.401Z,68.10
2023-04-17T01:06:55.730Z,61.90
2023-04-17T01:09:25.751Z,59.13
2023-04-17T01:11:53.978Z,51.50
2023-04-17T01:14:22.452Z,49.60
2023-04-17T01:16:50.598Z,49.88
2023-04-17T01:19:19.768Z,54.00
2023-04-17T01:21:48.081Z,54.17
2023-04-17T01:24:17.906Z,58.45
2023-04-17T01:26:46.032Z,57.95
2023-04-17T01:29:14.383Z,61.55
2023-04-17T01:31:42.614Z,48.40
2023-04-17T01:34:11.011Z,54.90
2023-04-17T01:36:39.191Z,58.58
2023-04-17T01:39:07.584Z,64.40
2023-04-17T01:41:37.492Z,60.30
2023-04-17T01:44:06.246Z,55.35
2023-04-17T01:46:34.449Z,60.85
2023-04-17T01:49:03.041Z,61.08
2023-04-17T01:51:31.213Z,60.65
2023-04-17T01:53:59.655Z,63.65
2023-04-17T01:56:28.122Z,62.15
2023-04-17T01:58:57.904Z,61.60
2023-04-17T02:01:26.072Z,68.07
2023-04-17T02:03:54.991Z,60.45
2023-04-17T02:06:23.169Z,65.28
2023-04-17T02:08:51.582Z,66.30
2023-04-17T02:11:19.864Z,61.90
2023-04-17T02:13:48.332Z,65.68
2023-04-17T02:16:21.615Z,63.20
2023-04-17T02:18:51.023Z,60.85
2023-04-17T02:21:19.447Z,60.97
2023-04-17T02:23:48.002Z,58.40
2023-04-17T02:26:16.140Z,62.95
2023-04-17T02:28:45.092Z,63.55
2023-04-17T02:31:13.862Z,61.67
2023-04-17T02:33:43.623Z,68.28
2023-04-17T02:36:11.794Z,65.75
2023-04-17T02:38:40.532Z,61.40
2023-04-17T02:41:08.758Z,61.35
2023-04-17T02:43:38.057Z,58.50
2023-04-17T02:46:06.367Z,56.80
2023-04-17T02:48:34.766Z,53.83
2023-04-17T02:51:04.443Z,57.55
2023-04-17T02:53:33.062Z,55.58
2023-04-17T02:56:01.183Z,54.92
2023-04-17T02:58:29.685Z,53.80
2023-04-17T03:01:02.495Z,51.17
2023-04-17T03:03:34.767Z,48.97
2023-04-17T03:06:05.172Z,48.15
2023-04-17T03:08:35.512Z,51.63
2023-04-17T03:11:04.137Z,48.47
2023-04-17T03:13:33.802Z,49.05
2023-04-17T03:16:02.392Z,55.40
2023-04-17T03:18:30.886Z,58.70
2023-04-17T03:20:59.128Z,62.85
2023-04-17T03:23:28.885Z,61.88
2023-04-17T03:25:56.961Z,63.63
2023-04-17T03:28:25.798Z,65.68
2023-04-17T03:30:54.943Z,62.90
2023-04-17T03:33:23.351Z,58.03
2023-04-17T03:35:51.489Z,56.33
2023-04-17T03:38:19.844Z,58.58
2023-04-17T03:40:49.459Z,59.60
2023-04-17T03:43:17.849Z,55.38
2023-04-17T03:45:46.235Z,71.15
2023-04-17T03:48:14.847Z,65.97
2023-04-17T03:50:42.990Z,78.90
2023-04-17T03:53:11.618Z,75.50
2023-04-17T03:55:39.860Z,70.13
2023-04-17T03:58:09.603Z,74.78
2023-04-17T04:00:38.539Z,72.38
2023-04-17T04:03:07.209Z,79.22
2023-04-17T04:05:35.684Z,73.93
2023-04-17T04:08:04.167Z,58.47
2023-04-17T04:10:33.368Z,59.20
2023-04-17T04:13:02.318Z,59.80
2023-04-17T04:15:31.883Z,61.30
2023-04-17T04:18:00.471Z,68.60
2023-04-17T04:20:28.657Z,73.35
2023-04-17T04:22:59.235Z,70.07
2023-04-17T04:25:28.842Z,76.55
2023-04-17T04:27:57.200Z,72.57
2023-04-17T04:30:25.989Z,88.07
2023-04-17T04:32:56.028Z,92.35
2023-04-17T04:35:25.862Z,78.03
2023-04-17T04:37:54.862Z,81.65
2023-04-17T04:40:24.619Z,87.30
2023-04-17T04:42:53.001Z,91.45
2023-04-17T04:45:21.148Z,77.65
2023-04-17T04:47:49.590Z,90.60
2023-04-17T04:50:19.872Z,80.55
2023-04-17T04:52:48.390Z,78.35
2023-04-17T04:55:16.512Z,95.13
2023-04-17T04:57:44.897Z,83.82
2023-04-17T05:00:14.334Z,79.30
2023-04-17T05:02:42.932Z,88.00
2023-04-17T05:05:12.396Z,84.95
2023-04-17T05:07:42.349Z,85.43
2023-04-17T05:10:11.164Z,96.10
2023-04-17T05:12:40.833Z,89.28
2023-04-17T05:15:10.043Z,91.97
2023-04-17T05:17:39.027Z,80.60
2023-04-17T05:20:09.187Z,81.22
2023-04-17T05:22:37.964Z,77.50
2023-04-17T05:25:08.506Z,73.40
2023-04-17T05:27:37.449Z,71.03
2023-04-17T05:30:06.448Z,79.18
2023-04-17T05:32:35.540Z,74.82
2023-04-17T05:35:03.854Z,82.03
2023-04-17T05:37:32.461Z,72.72
2023-04-17T05:40:01.329Z,85.28
2023-04-17T05:42:31.065Z,78.47
2023-04-17T05:44:59.232Z,96.60
2023-04-17T05:47:28.054Z,94.88
2023-04-17T05:49:58.171Z,84.60
2023-04-17T05:52:27.020Z,90.20
2023-04-17T05:54:55.295Z,95.82
2023-04-17T05:57:23.769Z,91.88
2023-04-17T05:59:53.268Z,96.00
2023-04-17T06:02:21.772Z,103.43
2023-04-17T06:04:50.306Z,92.43
2023-04-17T06:07:19.498Z,79.05
2023-04-17T06:09:47.759Z,80.18
2023-04-17T06:12:16.853Z,65.47
2023-04-17T06:14:44.974Z,64.80
2023-04-17T06:17:14.813Z,66.75
2023-04-17T06:19:43.108Z,67.85
2023-04-17T06:22:11.854Z,55.65
2023-04-17T06:24:39.959Z,52.85
2023-04-17T06:27:08.772Z,55.28
2023-04-17T06:29:36.899Z,56.15
2023-04-17T06:32:05.635Z,61.47
2023-04-17T06:34:36.043Z,71.22
2023-04-17T06:37:06.819Z,61.60
2023-04-17T06:39:34.924Z,63.83
2023-04-17T06:42:03.584Z,63.22
2023-04-17T06:44:31.689Z,67.97
2023-04-17T06:47:03.463Z,62.20
2023-04-17T06:49:31.766Z,66.13
2023-04-17T06:52:01.728Z,66.68
2023-04-17T06:54:29.918Z,73.05
2023-04-17T06:56:58.446Z,66.53
2023-04-17T06:59:26.622Z,76.55
2023-04-17T07:01:55.065Z,75.45
2023-04-17T07:04:23.375Z,69.88
2023-04-17T07:06:52.056Z,72.15
2023-04-17T07:09:21.513Z,74.95
2023-04-17T07:11:50.093Z,77.72
2023-04-17T07:14:18.308Z,79.70
2023-04-17T07:16:46.770Z,81.28
2023-04-17T07:19:15.138Z,77.10
2023-04-17T07:21:43.549Z,66.43
2023-04-17T07:24:11.616Z,75.65
2023-04-17T07:26:43.237Z,69.60
2023-04-17T07:29:11.878Z,64.82
2023-04-17T07:31:40.421Z,60.65
2023-04-17T07:34:08.762Z,63.63
2023-04-17T07:36:37.462Z,61.80
2023-04-17T07:39:06.439Z,67.90
2023-04-17T07:41:34.879Z,72.10
2023-04-17T07:44:05.773Z,70.05
2023-04-17T07:46:34.196Z,71.22
2023-04-17T07:49:02.473Z,79.10
2023-04-17T07:51:31.460Z,67.82
2023-04-17T07:53:59.591Z,67.45
2023-04-17T07:56:28.411Z,74.28
2023-04-17T07:58:56.555Z,71.93
2023-04-17T08:01:26.468Z,73.03
2023-04-17T08:03:55.494Z,77.25
2023-04-17T08:06:24.305Z,81.25
2023-04-17T08:08:52.584Z,84.47
2023-04-17T08:11:21.254Z,80.93
2023-04-17T08:13:49.466Z,80.97
2023-04-17T08:16:17.732Z,79.70
2023-04-17T08:18:47.675Z,78.40
2023-04-17T08:21:15.806Z,84.25
2023-04-17T08:23:44.211Z,76.50
2023-04-17T08:26:12.528Z,74.70
2023-04-17T08:28:41.101Z,82.10
2023-04-17T08:31:10.392Z,75.85
2023-04-17T08:33:39.096Z,69.53
2023-04-17T08:36:10.463Z,77.68
2023-04-17T08:38:39.003Z,70.28
2023-04-17T08:41:10.122Z,80.97
2023-04-17T08:43:38.670Z,78.93
2023-04-17T08:46:07.549Z,73.07
2023-04-17T08:48:36.119Z,74.13
2023-04-17T08:51:04.492Z,71.25
2023-04-17T08:53:34.271Z,74.78
2023-04-17T08:56:08.260Z,82.07
2023-04-17T08:58:37.947Z,76.13
2023-04-17T09:01:11.182Z,70.93
2023-04-17T09:03:43.558Z,79.97
2023-04-17T09:06:12.846Z,78.97
2023-04-17T09:08:58.328Z,67.43
2023-04-17T09:11:27.066Z,73.00
2023-04-17T09:13:55.673Z,86.72
2023-04-17T09:16:25.821Z,83.13
2023-04-17T09:19:06.795Z,79.50
2023-04-17T09:21:35.154Z,73.18
2023-04-17T09:24:06.782Z,80.07
2023-04-17T09:26:35.757Z,85.93
2023-04-17T09:29:09.045Z,86.07
2023-04-17T09:31:39.172Z,76.93
2023-04-17T09:34:08.631Z,80.65
2023-04-17T09:36:38.453Z,75.82
2023-04-17T09:39:20.288Z,77.35
2023-04-17T09:41:48.606Z,78.05
2023-04-17T09:44:26.549Z,75.10
2023-04-17T09:46:55.238Z,85.28
2023-04-17T09:49:27.043Z,77.88
2023-04-17T09:51:57.014Z,74.70
2023-04-17T09:54:31.621Z,79.53
2023-04-17T09:57:02.878Z,86.07
2023-04-17T09:59:31.874Z,76.77
2023-04-17T10:02:00.265Z,68.18
2023-04-17T10:04:30.430Z,73.18
2023-04-17T10:06:58.597Z,77.13
2023-04-17T10:09:28.338Z,71.35
2023-04-17T10:11:57.825Z,74.80
2023-04-17T10:14:27.595Z,73.40
2023-04-17T10:16:55.862Z,75.35
2023-04-17T10:19:29.580Z,83.05
2023-04-17T10:22:32.955Z,70.65
2023-04-17T10:25:22.474Z,74.22
2023-04-17T10:27:52.139Z,69.22
2023-04-17T10:30:22.527Z,72.85
2023-04-17T10:33:28.605Z,62.17
2023-04-17T10:35:57.297Z,66.47
2023-04-17T10:38:36.262Z,65.97
2023-04-17T10:41:11.084Z,59.67
2023-04-17T10:43:43.485Z,64.13
2023-04-17T10:46:13.298Z,54.95
2023-04-17T10:48:49.585Z,61.40
2023-04-17T10:51:52.532Z,59.83
2023-04-17T10:54:20.884Z,55.30
2023-04-17T10:56:55.823Z,56.83
2023-04-17T10:59:30.040Z,57.53
2023-04-17T11:02:01.534Z,53.58
2023-04-17T11:04:31.550Z,49.08
2023-04-17T11:07:01.229Z,47.22
2023-04-17T11:09:30.314Z,51.90
2023-04-17T11:12:03.036Z,46.33
2023-04-17T11:14:31.373Z,45.92
2023-04-17T11:16:59.893Z,37.20
2023-04-17T11:19:28.216Z,33.63
2023-04-17T11:21:58.681Z,34.35
2023-04-17T11:24:28.230Z,39.03
2023-04-17T11:26:57.836Z,39.53
2023-04-17T11:29:28.267Z,45.42
2023-04-17T11:31:58.201Z,37.47
2023-04-17T11:34:27.823Z,34.83
2023-04-17T11:36:57.746Z,41.30
2023-04-17T11:39:29.035Z,28.73
2023-04-17T11:41:57.956Z,28.10
2023-04-17T11:44:27.784Z,28.02
2023-04-17T11:46:59.349Z,26.00
2023-04-17T11:49:28.222Z,30.20
2023-04-17T11:51:59.625Z,28.75
2023-04-17T11:54:28.444Z,21.83
2023-04-17T11:57:01.323Z,20.73
2023-04-17T11:59:34.709Z,18.48
2023-04-17T12:02:03.754Z,23.70
2023-04-17T12:04:34.203Z,24.88
2023-04-17T12:07:03.691Z,30.98
2023-04-17T12:09:32.532Z,27.88
2023-04-17T12:12:02.616Z,26.17
2023-04-17T12:14:31.443Z,28.17
2023-04-17T12:17:01.502Z,27.02
2023-04-17T12:19:31.695Z,33.47
2023-04-17T12:22:00.444Z,36.97
2023-04-17T12:24:28.803Z,25.25
2023-04-17T12:26:58.674Z,21.83
2023-04-17T12:29:36.732Z,24.05
2023-04-17T12:32:15.206Z,19.77
2023-04-17T12:34:43.621Z,19.17
2023-04-17T12:37:11.989Z,21.73
2023-04-17T12:39:40.540Z,19.90
2023-04-17T12:42:08.900Z,22.60
2023-04-17T12:44:37.031Z,23.05
2023-04-17T12:47:05.820Z,26.13
2023-04-17T12:49:35.478Z,25.38
2023-04-17T12:52:04.275Z,21.60
2023-04-17T12:54:32.961Z,22.13
2023-04-17T12:57:02.054Z,24.52
2023-04-17T12:59:30.191Z,23.67
2023-04-17T13:01:58.799Z,23.00
2023-04-17T13:04:27.329Z,25.23
2023-04-17T13:06:57.147Z,19.38
2023-04-17T13:09:25.576Z,22.05
2023-04-17T13:11:54.183Z,22.98
2023-04-17T13:14:22.287Z,20.05
2023-04-17T13:16:51.499Z,25.05
2023-04-17T13:19:19.928Z,25.70
2023-04-17T13:21:48.445Z,27.70
2023-04-17T13:24:18.050Z,25.17
2023-04-17T13:26:46.717Z,23.70
2023-04-17T13:29:17.072Z,22.15
2023-04-17T13:31:47.086Z,25.02
2023-04-17T13:34:15.462Z,25.85
2023-04-17T13:36:45.025Z,24.67
2023-04-17T13:39:13.863Z,27.05
2023-04-17T13:41:43.732Z,29.58
2023-04-17T13:44:12.429Z,40.00
2023-04-17T13:46:40.956Z,27.92
2023-04-17T13:49:09.271Z,31.25
2023-04-17T13:51:37.656Z,68.45
2023-04-17T13:54:06.560Z,65.43
2023-04-17T13:56:35.046Z,78.95
2023-04-17T13:59:05.755Z,63.45
2023-04-17T14:01:34.309Z,25.73
2023-04-17T14:04:02.865Z,66.72
2023-04-17T14:06:32.911Z,43.80
2023-04-17T14:09:01.896Z,46.28
2023-04-17T14:11:30.572Z,73.43
2023-04-17T14:13:58.687Z,35.97
2023-04-17T14:16:28.926Z,31.23
2023-04-17T14:19:01.320Z,35.95
2023-04-17T14:21:35.628Z,34.13
2023-04-17T14:24:03.958Z,29.80
2023-04-17T14:26:32.446Z,46.90
2023-04-17T14:29:00.952Z,38.97
2023-04-17T14:31:31.160Z,30.00
2023-04-17T14:33:59.294Z,18.08
2023-04-17T14:36:27.912Z,19.23
2023-04-17T14:38:56.086Z,21.35
2023-04-17T14:41:29.733Z,22.13
2023-04-17T14:46:26.470Z,18.38
2023-04-17T14:48:57.136Z,26.05
2023-04-17T14:51:27.245Z,24.60
2023-04-17T14:53:55.838Z,32.72
2023-04-17T14:56:24.315Z,19.80
2023-04-17T14:58:52.721Z,20.10
2023-04-17T15:01:21.117Z,17.70
2023-04-17T15:03:49.608Z,15.23
2023-04-17T15:06:20.010Z,15.18
2023-04-17T15:08:48.367Z,20.00
2023-04-17T15:11:17.108Z,17.65
2023-04-17T15:13:45.455Z,17.27
2023-04-17T15:16:14.031Z,25.30
2023-04-17T15:18:42.199Z,24.90
2023-04-17T15:21:10.926Z,18.88
2023-04-17T15:23:40.960Z,19.63
2023-04-17T15:26:09.421Z,20.98
2023-04-17T15:28:38.089Z,20.08
2023-04-17T15:31:07.030Z,23.60
2023-04-17T15:33:35.304Z,20.88
2023-04-17T15:36:04.146Z,21.30
2023-04-17T15:38:32.296Z,23.40
2023-04-17T15:41:03.510Z,33.72
2023-04-17T15:43:32.250Z,48.38
2023-04-17T15:46:02.251Z,30.10
2023-04-17T15:48:31.170Z,25.25
2023-04-17T15:50:59.852Z,12.13
2023-04-17T15:53:27.982Z,13.02
2023-04-17T15:55:56.354Z,51.70
2023-04-17T15:58:26.170Z,33.42
2023-04-17T16:00:54.560Z,12.32
2023-04-17T16:03:23.023Z,19.70
2023-04-17T16:05:53.878Z,26.85
2023-04-17T16:08:22.262Z,22.80
2023-04-17T16:10:50.676Z,16.98
2023-04-17T16:13:19.044Z,20.25
2023-04-17T16:15:49.457Z,23.38
2023-04-17T16:18:17.590Z,20.05
2023-04-17T16:20:46.557Z,19.60
2023-04-17T16:23:14.873Z,17.20
2023-04-17T16:25:43.238Z,16.60
2023-04-17T16:28:12.275Z,15.07
2023-04-17T16:30:40.632Z,18.88
2023-04-17T16:33:10.296Z,17.05
2023-04-17T16:35:39.060Z,25.00
2023-04-17T16:38:07.307Z,33.58
2023-04-17T16:40:35.673Z,21.70
2023-04-17T16:43:03.959Z,23.58
2023-04-17T16:45:32.417Z,20.50
2023-04-17T16:48:00.614Z,25.20
2023-04-17T16:50:30.641Z,40.53
2023-04-17T16:52:58.766Z,38.30
2023-04-17T16:55:27.116Z,28.80
2023-04-17T16:57:55.654Z,24.33
2023-04-17T17:00:24.376Z,21.83
2023-04-17T17:02:52.777Z,23.02
2023-04-17T17:05:21.768Z,26.98
2023-04-17T17:07:51.343Z,18.58
2023-04-17T17:10:20.118Z,16.70
2023-04-17T17:12:48.449Z,28.92
2023-04-17T17:15:16.947Z,26.10
2023-04-17T17:17:45.136Z,24.50
2023-04-17T17:20:14.334Z,20.75
2023-04-17T17:22:42.684Z,26.33
2023-04-17T17:25:12.846Z,15.00
2023-04-17T17:27:41.148Z,16.20
2023-04-17T17:30:10.446Z,22.33
2023-04-17T17:32:38.571Z,22.05
2023-04-17T17:35:07.898Z,12.90
2023-04-17T17:37:36.253Z,24.05
2023-04-17T17:40:05.222Z,17.25
2023-04-17T17:42:34.792Z,14.32
2023-04-17T17:45:03.686Z,18.58
2023-04-17T17:47:31.971Z,37.78
2023-04-17T17:50:00.517Z,22.58
2023-04-17T17:52:28.851Z,21.10
2023-04-17T17:54:57.216Z,18.77
2023-04-17T17:57:29.236Z,23.77
2023-04-17T18:00:06.562Z,15.50
2023-04-17T18:02:35.040Z,28.20
2023-04-17T18:05:03.612Z,25.00
2023-04-17T18:07:32.378Z,15.88
2023-04-17T18:10:01.950Z,16.35
2023-04-17T18:12:30.225Z,15.80
2023-04-17T18:14:58.793Z,14.55
2023-04-17T18:17:28.619Z,12.02
2023-04-17T18:19:57.292Z,13.32
2023-04-17T18:22:25.703Z,15.32
2023-04-17T18:24:54.474Z,18.08
2023-04-17T18:27:23.058Z,13.38
2023-04-17T18:29:51.668Z,14.90
2023-04-17T18:32:19.959Z,13.07
2023-04-17T18:34:50.771Z,14.55
2023-04-17T18:37:19.101Z,9.55
2023-04-17T18:39:48.282Z,15.38
2023-04-17T18:42:16.419Z,14.95
2023-04-17T18:44:45.291Z,20.13
2023-04-17T18:47:13.989Z,13.25
2023-04-17T18:49:42.585Z,15.60
2023-04-17T18:52:12.266Z,24.58
2023-04-17T18:54:41.111Z,10.80
2023-04-17T18:57:09.412Z,20.13
2023-04-17T18:59:37.998Z,22.75
2023-04-17T19:02:06.484Z,22.08
2023-04-17T19:04:35.114Z,21.55
2023-04-17T19:07:03.346Z,15.30
2023-04-17T19:09:33.356Z,16.92
2023-04-17T19:12:02.755Z,13.60
2023-04-17T19:14:32.524Z,11.10
2023-04-17T19:17:00.840Z,12.57
2023-04-17T19:19:29.480Z,14.23
2023-04-17T19:21:57.803Z,18.00
2023-04-17T19:24:26.626Z,11.48
2023-04-17T19:26:57.641Z,11.68
2023-04-17T19:29:26.299Z,13.73
2023-04-17T19:31:54.657Z,13.68
2023-04-17T19:34:23.171Z,18.50
2023-04-17T19:36:51.578Z,13.27
2023-04-17T19:39:20.458Z,13.48
2023-04-17T19:41:50.936Z,14.07
2023-04-17T19:44:21.172Z,16.70
2023-04-17T19:46:49.378Z,17.52
2023-04-17T19:49:17.753Z,14.50
2023-04-17T19:51:46.815Z,16.65
2023-04-17T19:54:15.874Z,14.98
2023-04-17T19:56:44.106Z,17.33
2023-04-17T19:59:13.596Z,16.92
2023-04-17T20:01:44.426Z,16.27
2023-04-17T20:04:13.483Z,18.70
2023-04-17T20:06:41.956Z,16.95
2023-04-17T20:09:12.602Z,20.42
2023-04-17T20:14:14.546Z,18.20
2023-04-17T20:16:46.398Z,17.58
2023-04-17T20:19:17.280Z,18.02
2023-04-17T20:21:46.800Z,20.35
2023-04-17T20:24:16.035Z,20.80
2023-04-17T20:26:45.314Z,18.27
2023-04-17T20:29:14.128Z,20.13
2023-04-17T20:31:44.230Z,21.48
2023-04-17T20:34:12.797Z,19.48
2023-04-17T20:36:40.953Z,21.30
2023-04-17T20:39:11.097Z,17.58
2023-04-17T20:41:39.628Z,21.42
2023-04-17T20:44:08.382Z,18.13
2023-04-17T20:46:37.440Z,18.50
2023-04-17T20:49:07.317Z,16.27
2023-04-17T20:51:35.426Z,17.35
2023-04-17T20:54:03.999Z,18.70
2023-04-17T20:56:32.146Z,19.15
2023-04-17T20:59:00.551Z,19.52
2023-04-17T21:01:28.876Z,23.02
2023-04-17T21:03:57.551Z,21.35
2023-04-17T21:06:27.112Z,26.48
2023-04-17T21:08:55.641Z,24.15
2023-04-17T21:11:23.861Z,23.00
2023-04-17T21:13:52.232Z,24.40
2023-04-17T21:16:20.589Z,25.55
2023-04-17T21:18:49.269Z,23.90
2023-04-17T21:21:17.383Z,27.27
2023-04-17T21:23:47.145Z,25.95
2023-04-17T21:26:15.566Z,29.23
2023-04-17T21:28:43.938Z,25.33
2023-04-17T21:31:15.004Z,26.60
2023-04-17T21:33:43.435Z,28.80
2023-04-17T21:36:11.756Z,27.85
2023-04-17T21:38:40.344Z,29.27
2023-04-17T21:41:09.939Z,32.42
2023-04-17T21:43:38.376Z,26.90
2023-04-17T21:46:10.510Z,30.50
2023-04-17T21:48:38.919Z,30.90
2023-04-17T21:51:07.142Z,31.55
2023-04-17T21:53:37.180Z,30.08
2023-04-17T21:56:06.950Z,27.52
2023-04-17T21:58:36.969Z,31.33
2023-04-17T22:01:05.153Z,29.40
2023-04-17T22:03:33.860Z,32.63
2023-04-17T22:06:01.978Z,32.50
2023-04-17T22:08:30.359Z,28.52
2023-04-17T22:10:58.452Z,28.27
2023-04-17T22:13:26.917Z,29.27
2023-04-17T22:15:58.290Z,29.90
2023-04-17T22:18:27.639Z,28.45
2023-04-17T22:20:55.796Z,27.08
2023-04-17T22:23:24.298Z,26.02
2023-04-17T22:25:52.409Z,22.02
2023-04-17T22:28:20.877Z,26.90
2023-04-17T22:30:51.954Z,24.70
2023-04-17T22:33:21.763Z,29.85
2023-04-17T22:35:50.559Z,24.05
2023-04-17T22:38:19.520Z,26.40
2023-04-17T22:40:47.807Z,23.42
2023-04-17T22:43:16.274Z,27.25
2023-04-17T22:45:44.847Z,25.38
2023-04-17T22:48:13.295Z,20.90
2023-04-17T22:50:42.924Z,23.23
2023-04-17T22:53:11.318Z,21.30
2023-04-17T22:55:39.730Z,25.35
2023-04-17T22:58:08.145Z,26.98
2023-04-17T23:00:36.688Z,25.63
2023-04-17T23:03:05.252Z,24.40
2023-04-17T23:05:33.562Z,21.35
2023-04-17T23:08:03.457Z,21.02
2023-04-17T23:10:31.592Z,20.73
2023-04-17T23:12:59.992Z,20.52
2023-04-17T23:15:28.125Z,24.02
2023-04-17T23:17:56.601Z,21.67
2023-04-17T23:20:25.770Z,22.52
2023-04-17T23:22:54.417Z,26.70
2023-04-17T23:25:23.874Z,24.10
2023-04-17T23:27:52.280Z,22.48
2023-04-17T23:30:20.515Z,21.00
2023-04-17T23:32:50.675Z,22.88
2023-04-17T23:35:19.105Z,26.10
2023-04-17T23:37:47.768Z,25.70
2023-04-17T23:40:16.094Z,26.17
2023-04-17T23:42:46.873Z,24.08
2023-04-17T23:45:15.157Z,25.58
2023-04-17T23:47:43.614Z,29.50
2023-04-17T23:50:12.301Z,27.10
2023-04-17T23:52:40.851Z,28.30
2023-04-17T23:55:09.764Z,29.98
2023-04-17T23:57:38.432Z,24.48
